createdAt,value
2022-10-30T00:02:00.482Z,24.23
2022-10-30T00:04:26.891Z,24.25
2022-10-30T00:06:53.225Z,24.25
2022-10-30T00:09:19.832Z,24.24
2022-10-30T00:11:46.223Z,24.25
2022-10-30T00:14:12.545Z,24.24
2022-10-30T00:16:38.879Z,24.24
2022-10-30T00:19:05.205Z,24.26
2022-10-30T00:21:31.541Z,24.26
2022-10-30T00:23:57.896Z,24.26
2022-10-30T00:26:24.226Z,24.24
2022-10-30T00:28:50.563Z,24.23
2022-10-30T00:31:16.888Z,24.24
2022-10-30T00:33:43.215Z,24.23
2022-10-30T00:36:09.531Z,24.26
2022-10-30T00:38:35.866Z,24.21
2022-10-30T00:41:02.196Z,24.23
2022-10-30T00:43:28.525Z,24.23
2022-10-30T00:45:54.846Z,24.26
2022-10-30T00:48:21.162Z,24.24
2022-10-30T00:50:47.504Z,24.24
2022-10-30T00:53:13.837Z,24.22
2022-10-30T00:55:40.151Z,24.26
2022-10-30T00:58:06.478Z,24.23
2022-10-30T01:00:32.914Z,24.25
2022-10-30T01:02:59.614Z,24.25
2022-10-30T01:05:26.194Z,24.28
2022-10-30T01:07:52.520Z,24.24
2022-10-30T01:10:18.843Z,24.22
2022-10-30T01:12:45.158Z,24.17
2022-10-30T01:15:11.475Z,24.20
2022-10-30T01:17:37.822Z,24.20
2022-10-30T01:20:04.161Z,24.22
2022-10-30T01:22:30.516Z,24.20
2022-10-30T01:24:56.840Z,24.24
2022-10-30T01:27:23.161Z,24.24
2022-10-30T01:29:49.477Z,24.26
2022-10-30T01:32:15.816Z,24.21
2022-10-30T01:37:09.384Z,24.21
2022-10-30T01:39:35.705Z,24.20
2022-10-30T01:42:02.041Z,24.22
2022-10-30T01:44:28.375Z,24.17
2022-10-30T01:46:54.692Z,24.20
2022-10-30T01:49:21.051Z,24.19
2022-10-30T01:51:47.419Z,24.20
2022-10-30T01:54:13.754Z,24.22
2022-10-30T01:56:40.073Z,24.21
2022-10-30T01:59:06.404Z,24.19
2022-10-30T02:01:32.864Z,24.20
2022-10-30T02:03:59.379Z,24.19
2022-10-30T02:06:25.788Z,24.18
2022-10-30T02:08:52.115Z,24.20
2022-10-30T02:11:18.444Z,24.20
2022-10-30T02:13:44.791Z,24.19
2022-10-30T02:16:11.122Z,24.17
2022-10-30T02:18:37.518Z,24.18
2022-10-30T02:21:03.898Z,24.21
2022-10-30T02:23:30.224Z,24.25
2022-10-30T02:25:56.550Z,24.21
2022-10-30T02:28:22.880Z,24.21
2022-10-30T02:30:49.221Z,24.22
2022-10-30T02:33:15.544Z,24.21
2022-10-30T02:35:41.857Z,24.19
2022-10-30T02:38:08.214Z,24.20
2022-10-30T02:40:34.555Z,24.21
2022-10-30T02:43:00.888Z,24.21
2022-10-30T02:45:27.218Z,24.21
2022-10-30T02:47:53.598Z,24.19
2022-10-30T02:50:19.965Z,24.19
2022-10-30T02:52:46.274Z,24.19
2022-10-30T02:55:12.607Z,24.19
2022-10-30T02:57:38.933Z,24.20
2022-10-30T03:00:05.267Z,24.20
2022-10-30T03:02:31.585Z,24.20
2022-10-30T03:04:57.910Z,24.28
2022-10-30T03:07:24.247Z,24.21
2022-10-30T03:09:50.566Z,24.19
2022-10-30T03:12:16.902Z,24.18
2022-10-30T03:14:43.268Z,24.19
2022-10-30T03:17:09.601Z,24.16
2022-10-30T03:19:35.929Z,24.18
2022-10-30T03:22:02.266Z,24.17
2022-10-30T03:24:28.604Z,24.15
2022-10-30T03:26:54.934Z,24.17
2022-10-30T03:29:21.259Z,24.15
2022-10-30T03:31:50.542Z,24.20
2022-10-30T03:37:07.428Z,24.20
2022-10-30T03:39:33.755Z,24.17
2022-10-30T03:42:00.089Z,24.20
2022-10-30T03:44:26.478Z,24.17
2022-10-30T03:46:52.794Z,24.17
2022-10-30T03:49:19.127Z,24.20
2022-10-30T03:51:45.464Z,24.18
2022-10-30T03:54:12.034Z,24.18
2022-10-30T03:56:38.426Z,24.19
2022-10-30T03:59:04.736Z,24.15
2022-10-30T04:01:31.132Z,24.15
2022-10-30T04:03:57.547Z,24.39
2022-10-30T04:06:23.869Z,24.21
2022-10-30T04:08:50.199Z,24.15
2022-10-30T04:11:16.621Z,24.15
2022-10-30T04:13:43.003Z,24.20
2022-10-30T04:16:09.325Z,24.15
2022-10-30T04:18:35.654Z,24.18
2022-10-30T04:21:01.965Z,24.14
2022-10-30T04:23:28.298Z,24.14
2022-10-30T04:25:54.626Z,24.14
2022-10-30T04:28:20.957Z,24.14
2022-10-30T04:30:47.315Z,24.12
2022-10-30T04:33:13.643Z,24.14
2022-10-30T04:35:40.018Z,24.13
2022-10-30T04:38:06.364Z,24.19
2022-10-30T04:40:32.701Z,24.19
2022-10-30T04:42:59.409Z,24.24
2022-10-30T04:45:25.935Z,24.20
2022-10-30T04:47:52.263Z,24.15
2022-10-30T04:50:18.588Z,24.10
2022-10-30T04:52:44.917Z,24.13
2022-10-30T04:55:11.249Z,24.11
2022-10-30T04:57:37.565Z,24.08
2022-10-30T05:00:03.890Z,24.09
2022-10-30T05:02:30.352Z,24.16
2022-10-30T05:04:56.792Z,24.23
2022-10-30T05:07:23.114Z,24.20
2022-10-30T05:09:49.443Z,24.16
2022-10-30T05:12:15.770Z,24.17
2022-10-30T05:14:42.103Z,24.18
2022-10-30T05:17:08.548Z,24.16
2022-10-30T05:19:34.883Z,24.11
2022-10-30T05:22:01.207Z,24.11
2022-10-30T05:24:27.543Z,24.14
2022-10-30T05:26:53.893Z,24.12
2022-10-30T05:29:20.204Z,24.15
2022-10-30T05:31:46.535Z,24.12
2022-10-30T05:34:12.877Z,24.08
2022-10-30T05:36:39.199Z,24.07
2022-10-30T05:39:05.518Z,24.06
2022-10-30T05:41:31.838Z,24.08
2022-10-30T05:43:58.160Z,24.11
2022-10-30T05:46:24.489Z,24.02
2022-10-30T05:48:50.847Z,24.03
2022-10-30T05:51:17.162Z,24.07
2022-10-30T05:53:43.599Z,24.04
2022-10-30T05:56:09.929Z,24.04
2022-10-30T05:58:36.269Z,24.05
2022-10-30T06:01:02.593Z,24.07
2022-10-30T06:03:28.927Z,24.11
2022-10-30T06:05:55.250Z,24.08
2022-10-30T06:08:21.563Z,24.06
2022-10-30T06:10:47.890Z,24.08
2022-10-30T06:13:14.228Z,24.12
2022-10-30T06:15:40.676Z,24.04
2022-10-30T06:18:06.993Z,24.03
2022-10-30T06:20:33.314Z,23.97
2022-10-30T06:22:59.686Z,23.99
2022-10-30T06:25:26.029Z,23.96
2022-10-30T06:27:52.361Z,24.00
2022-10-30T06:30:18.713Z,24.00
2022-10-30T06:32:45.035Z,23.97
2022-10-30T06:35:11.355Z,24.02
2022-10-30T06:37:37.686Z,24.08
2022-10-30T06:40:04.019Z,24.04
2022-10-30T06:42:30.350Z,24.03
2022-10-30T06:44:56.674Z,24.07
2022-10-30T06:47:22.995Z,23.97
2022-10-30T06:49:49.316Z,23.99
2022-10-30T06:52:15.634Z,23.97
2022-10-30T06:54:41.977Z,24.03
2022-10-30T06:57:08.307Z,24.02
2022-10-30T06:59:34.654Z,24.02
2022-10-30T07:02:02.424Z,24.01
2022-10-30T07:04:30.673Z,23.97
2022-10-30T07:06:57.003Z,24.07
2022-10-30T07:09:23.329Z,24.06
2022-10-30T07:11:52.159Z,24.16
2022-10-30T07:14:20.789Z,24.05
2022-10-30T07:16:47.141Z,24.02
2022-10-30T07:19:13.479Z,24.19
2022-10-30T07:21:39.814Z,24.12
2022-10-30T07:24:06.147Z,24.22
2022-10-30T07:26:32.479Z,24.16
2022-10-30T07:28:58.818Z,24.33
2022-10-30T07:31:35.217Z,24.48
2022-10-30T07:34:09.138Z,24.53
2022-10-30T07:36:35.486Z,24.55
2022-10-30T07:39:01.824Z,24.56
2022-10-30T07:41:28.174Z,24.53
2022-10-30T07:43:54.498Z,24.55
2022-10-30T07:46:20.840Z,24.59
2022-10-30T07:48:47.174Z,24.54
2022-10-30T07:51:13.511Z,24.60
2022-10-30T07:53:39.852Z,24.58
2022-10-30T07:56:06.191Z,24.55
2022-10-30T07:58:32.531Z,24.59
2022-10-30T08:00:58.961Z,24.61
2022-10-30T08:03:25.336Z,24.57
2022-10-30T08:05:51.675Z,24.42
2022-10-30T08:08:18.031Z,24.48
2022-10-30T08:10:44.354Z,24.50
2022-10-30T08:13:10.687Z,24.62
2022-10-30T08:15:37.018Z,24.64
2022-10-30T08:18:03.346Z,24.31
2022-10-30T08:20:29.699Z,24.16
2022-10-30T08:22:56.409Z,24.35
2022-10-30T08:25:23.013Z,24.39
2022-10-30T08:27:49.338Z,24.33
2022-10-30T08:30:15.678Z,24.23
2022-10-30T08:32:42.010Z,24.20
2022-10-30T08:35:08.352Z,24.22
2022-10-30T08:37:34.694Z,24.22
2022-10-30T08:40:01.061Z,24.21
2022-10-30T08:42:27.411Z,24.22
2022-10-30T08:44:53.737Z,24.26
2022-10-30T08:47:20.077Z,24.25
2022-10-30T08:49:46.413Z,24.25
2022-10-30T08:52:12.748Z,24.26
2022-10-30T08:54:39.083Z,24.25
2022-10-30T08:57:05.426Z,24.31
2022-10-30T08:59:31.754Z,24.33
2022-10-30T09:01:58.286Z,24.34
2022-10-30T09:04:24.743Z,24.33
2022-10-30T09:06:51.121Z,24.33
2022-10-30T09:09:17.454Z,24.29
2022-10-30T09:11:43.791Z,24.29
2022-10-30T09:14:10.122Z,24.27
2022-10-30T09:16:36.465Z,24.26
2022-10-30T09:19:02.811Z,24.32
2022-10-30T09:21:29.177Z,24.26
2022-10-30T09:23:55.515Z,24.33
2022-10-30T09:26:21.847Z,24.32
2022-10-30T09:28:48.199Z,24.34
2022-10-30T09:31:14.526Z,24.30
2022-10-30T09:33:40.876Z,24.32
2022-10-30T09:36:07.222Z,24.34
2022-10-30T09:38:33.555Z,24.27
2022-10-30T09:40:59.877Z,24.28
2022-10-30T09:43:26.292Z,24.26
2022-10-30T09:45:52.631Z,24.28
2022-10-30T09:48:18.959Z,24.24
2022-10-30T09:50:45.315Z,24.25
2022-10-30T09:53:11.649Z,24.29
2022-10-30T09:55:37.980Z,24.25
2022-10-30T09:58:04.316Z,24.26
2022-10-30T10:00:30.642Z,24.28
2022-10-30T10:02:57.416Z,24.25
2022-10-30T10:05:23.998Z,24.25
2022-10-30T10:07:50.375Z,24.26
2022-10-30T10:10:16.808Z,24.28
2022-10-30T10:12:43.168Z,24.31
2022-10-30T10:15:09.507Z,24.29
2022-10-30T10:17:35.831Z,24.28
2022-10-30T10:20:02.248Z,24.30
2022-10-30T10:22:28.607Z,24.31
2022-10-30T10:24:54.955Z,24.29
2022-10-30T10:27:21.278Z,24.32
2022-10-30T10:29:47.602Z,24.31
2022-10-30T10:32:13.926Z,24.31
2022-10-30T10:34:40.271Z,24.29
2022-10-30T10:37:06.611Z,24.30
2022-10-30T10:39:32.943Z,24.30
2022-10-30T10:41:59.350Z,24.28
2022-10-30T10:44:25.719Z,24.28
2022-10-30T10:46:52.058Z,24.25
2022-10-30T10:49:18.405Z,24.27
2022-10-30T10:51:44.746Z,24.30
2022-10-30T10:54:11.075Z,24.25
2022-10-30T10:56:38.480Z,24.27
2022-10-30T10:59:04.818Z,24.25
2022-10-30T11:01:31.234Z,24.25
2022-10-30T11:03:57.633Z,24.27
2022-10-30T11:06:23.975Z,24.34
2022-10-30T11:08:50.307Z,24.30
2022-10-30T11:11:16.661Z,24.31
2022-10-30T11:13:42.995Z,24.25
2022-10-30T11:16:09.322Z,24.25
2022-10-30T11:18:35.659Z,24.23
2022-10-30T11:21:02.007Z,24.25
2022-10-30T11:23:28.336Z,24.27
2022-10-30T11:25:54.672Z,24.25
2022-10-30T11:28:21.005Z,24.26
2022-10-30T11:30:47.354Z,24.25
2022-10-30T11:33:13.697Z,24.23
2022-10-30T11:35:40.029Z,24.22
2022-10-30T11:38:06.386Z,24.26
2022-10-30T11:40:32.724Z,24.20
2022-10-30T11:42:59.201Z,24.20
2022-10-30T11:45:25.759Z,24.26
2022-10-30T11:47:52.099Z,24.24
2022-10-30T11:50:18.510Z,24.25
2022-10-30T11:52:44.877Z,24.25
2022-10-30T11:55:11.210Z,24.28
2022-10-30T11:57:37.558Z,24.27
2022-10-30T12:00:05.600Z,24.28
2022-10-30T12:02:32.264Z,24.27
2022-10-30T12:04:59.219Z,24.26
2022-10-30T12:07:25.568Z,24.25
2022-10-30T12:09:51.907Z,24.28
2022-10-30T12:12:18.249Z,24.31
2022-10-30T12:14:44.578Z,24.30
2022-10-30T12:17:10.912Z,24.30
2022-10-30T12:19:37.252Z,24.31
2022-10-30T12:22:06.336Z,24.31
2022-10-30T12:24:36.055Z,24.26
2022-10-30T12:27:02.400Z,24.29
2022-10-30T12:29:41.845Z,24.26
2022-10-30T12:32:14.722Z,24.23
2022-10-30T12:34:41.049Z,24.27
2022-10-30T12:37:07.393Z,24.31
2022-10-30T12:39:33.738Z,24.32
2022-10-30T12:42:00.078Z,24.32
2022-10-30T12:44:26.436Z,24.32
2022-10-30T12:46:52.765Z,24.31
2022-10-30T12:49:19.111Z,24.31
2022-10-30T12:51:45.450Z,24.30
2022-10-30T12:54:11.790Z,24.32
2022-10-30T12:56:38.122Z,24.31
2022-10-30T12:59:04.455Z,24.31
2022-10-30T13:01:30.878Z,24.27
2022-10-30T13:03:57.298Z,24.26
2022-10-30T13:06:23.646Z,24.36
2022-10-30T13:08:51.069Z,24.31
2022-10-30T13:11:17.645Z,24.34
2022-10-30T13:13:43.983Z,24.29
2022-10-30T13:16:10.317Z,24.32
2022-10-30T13:18:36.650Z,24.31
2022-10-30T13:21:02.994Z,24.31
2022-10-30T13:23:29.329Z,24.31
2022-10-30T13:25:55.693Z,24.27
2022-10-30T13:28:22.032Z,24.34
2022-10-30T13:30:48.363Z,24.36
2022-10-30T13:33:14.710Z,24.32
2022-10-30T13:35:41.063Z,24.35
2022-10-30T13:38:07.410Z,24.38
2022-10-30T13:40:33.742Z,24.40
2022-10-30T13:43:00.090Z,24.41
2022-10-30T13:45:26.432Z,24.43
2022-10-30T13:47:52.767Z,24.43
2022-10-30T13:50:19.111Z,24.52
2022-10-30T13:52:45.452Z,24.46
2022-10-30T13:55:11.788Z,24.47
2022-10-30T13:57:38.132Z,24.42
2022-10-30T14:00:04.471Z,24.47
2022-10-30T14:02:30.984Z,24.47
2022-10-30T14:04:57.466Z,24.40
2022-10-30T14:07:23.807Z,24.44
2022-10-30T14:09:50.141Z,24.47
2022-10-30T14:12:16.471Z,24.50
2022-10-30T14:14:42.959Z,24.50
2022-10-30T14:17:09.294Z,24.53
2022-10-30T14:19:35.628Z,24.52
2022-10-30T14:22:01.965Z,24.63
2022-10-30T14:24:28.292Z,24.62
2022-10-30T14:26:54.623Z,24.56
2022-10-30T14:29:20.984Z,24.57
2022-10-30T14:31:47.320Z,24.58
2022-10-30T14:34:13.668Z,24.56
2022-10-30T14:36:40.004Z,24.58
2022-10-30T14:39:06.340Z,24.57
2022-10-30T14:41:32.672Z,24.61
2022-10-30T14:43:59.027Z,24.55
2022-10-30T14:46:25.366Z,24.49
2022-10-30T14:48:51.700Z,24.47
2022-10-30T14:51:18.030Z,24.49
2022-10-30T14:53:44.346Z,24.58
2022-10-30T14:56:10.762Z,24.50
2022-10-30T14:58:37.106Z,24.51
2022-10-30T15:01:03.511Z,24.48
2022-10-30T15:03:29.940Z,24.55
2022-10-30T15:05:56.346Z,24.54
2022-10-30T15:08:22.715Z,24.58
2022-10-30T15:10:49.060Z,24.57
2022-10-30T15:13:15.392Z,24.59
2022-10-30T15:15:41.734Z,24.50
2022-10-30T15:18:08.122Z,24.59
2022-10-30T15:20:34.453Z,24.67
2022-10-30T15:23:01.086Z,24.70
2022-10-30T15:25:27.606Z,24.64
2022-10-30T15:27:53.934Z,24.63
2022-10-30T15:30:20.269Z,24.68
2022-10-30T15:32:46.611Z,24.65
2022-10-30T15:35:13.338Z,24.59
2022-10-30T15:37:39.683Z,24.54
2022-10-30T15:40:06.040Z,24.51
2022-10-30T15:42:32.379Z,24.54
2022-10-30T15:44:58.703Z,24.51
2022-10-30T15:47:25.044Z,24.45
2022-10-30T15:49:51.382Z,24.48
2022-10-30T15:52:17.842Z,24.45
2022-10-30T15:54:44.179Z,24.43
2022-10-30T15:59:56.833Z,24.43
2022-10-30T16:02:23.468Z,24.42
2022-10-30T16:04:49.910Z,24.42
2022-10-30T16:07:16.247Z,24.43
2022-10-30T16:09:42.583Z,24.42
2022-10-30T16:12:11.792Z,24.40
2022-10-30T16:14:39.101Z,24.41
2022-10-30T16:17:05.432Z,24.42
2022-10-30T16:19:31.778Z,24.30
2022-10-30T16:21:58.098Z,24.56
2022-10-30T16:24:24.438Z,24.52
2022-10-30T16:26:50.776Z,24.38
2022-10-30T16:29:17.115Z,24.48
2022-10-30T16:31:43.441Z,24.39
2022-10-30T16:34:09.777Z,24.38
2022-10-30T16:36:36.103Z,24.41
2022-10-30T16:39:02.450Z,24.44
2022-10-30T16:41:28.860Z,24.44
2022-10-30T16:43:55.211Z,24.43
2022-10-30T16:46:21.534Z,24.42
2022-10-30T16:48:47.895Z,24.42
2022-10-30T16:51:14.299Z,24.38
2022-10-30T16:53:40.615Z,24.39
2022-10-30T16:56:07.065Z,24.50
2022-10-30T16:58:33.396Z,24.49
2022-10-30T17:00:59.816Z,24.47
2022-10-30T17:03:26.182Z,24.46
2022-10-30T17:05:52.516Z,24.46
2022-10-30T17:08:18.843Z,24.52
2022-10-30T17:10:45.191Z,24.49
2022-10-30T17:13:11.526Z,24.46
2022-10-30T17:15:37.859Z,24.46
2022-10-30T17:18:04.192Z,24.47
2022-10-30T17:20:31.391Z,24.46
2022-10-30T17:22:58.384Z,24.45
2022-10-30T17:25:24.981Z,24.44
2022-10-30T17:27:51.304Z,24.44
2022-10-30T17:30:17.621Z,24.44
2022-10-30T17:32:43.953Z,24.44
2022-10-30T17:35:10.278Z,24.47
2022-10-30T17:37:36.618Z,24.46
2022-10-30T17:40:02.961Z,24.48
2022-10-30T17:42:29.293Z,24.47
2022-10-30T17:44:55.617Z,24.57
2022-10-30T17:47:21.952Z,24.49
2022-10-30T17:49:48.318Z,24.49
2022-10-30T17:52:14.662Z,24.49
2022-10-30T17:54:41.004Z,24.50
2022-10-30T17:57:07.356Z,24.48
2022-10-30T17:59:33.684Z,24.48
2022-10-30T18:02:00.100Z,24.48
2022-10-30T18:04:26.531Z,24.47
2022-10-30T18:06:52.872Z,24.46
2022-10-30T18:09:19.204Z,24.45
2022-10-30T18:11:45.542Z,24.43
2022-10-30T18:14:11.871Z,24.44
2022-10-30T18:16:38.203Z,24.43
2022-10-30T18:19:04.540Z,24.45
2022-10-30T18:21:30.873Z,24.45
2022-10-30T18:23:57.211Z,24.34
2022-10-30T18:26:23.548Z,24.44
2022-10-30T18:28:49.880Z,24.43
2022-10-30T18:31:16.316Z,24.42
2022-10-30T18:33:42.656Z,24.52
2022-10-30T18:36:09.001Z,24.55
2022-10-30T18:38:35.327Z,24.53
2022-10-30T18:41:01.775Z,24.53
2022-10-30T18:43:28.102Z,24.55
2022-10-30T18:45:54.426Z,24.54
2022-10-30T18:48:20.760Z,24.53
2022-10-30T18:50:47.177Z,24.54
2022-10-30T18:53:13.567Z,24.54
2022-10-30T18:55:42.983Z,24.54
2022-10-30T18:58:09.342Z,24.55
2022-10-30T19:00:58.045Z,24.55
2022-10-30T19:03:21.974Z,24.55
2022-10-30T19:05:48.299Z,24.58
2022-10-30T19:08:14.628Z,24.62
2022-10-30T19:10:41.016Z,24.57
2022-10-30T19:13:15.060Z,24.57
2022-10-30T19:15:41.660Z,24.58
2022-10-30T19:18:08.000Z,24.58
2022-10-30T19:20:50.974Z,24.56
2022-10-30T19:23:20.666Z,24.55
2022-10-30T19:25:46.998Z,24.55
2022-10-30T19:28:13.403Z,24.55
2022-10-30T19:30:39.782Z,24.55
2022-10-30T19:33:06.137Z,24.55
2022-10-30T19:35:32.472Z,24.56
2022-10-30T19:37:59.017Z,24.56
2022-10-30T19:40:25.556Z,24.57
2022-10-30T19:42:51.881Z,24.55
2022-10-30T19:45:18.200Z,24.67
2022-10-30T19:47:44.526Z,24.76
2022-10-30T19:50:10.863Z,24.76
2022-10-30T19:52:37.198Z,24.60
2022-10-30T19:55:03.532Z,24.70
2022-10-30T19:57:29.865Z,24.63
2022-10-30T19:59:56.199Z,24.61
2022-10-30T20:02:22.570Z,24.55
2022-10-30T20:04:48.941Z,24.70
2022-10-30T20:07:15.281Z,24.67
2022-10-30T20:09:41.671Z,24.71
2022-10-30T20:12:08.001Z,24.69
2022-10-30T20:14:34.349Z,24.70
2022-10-30T20:17:00.682Z,24.68
2022-10-30T20:19:27.013Z,24.67
2022-10-30T20:21:53.348Z,24.67
2022-10-30T20:24:19.673Z,24.67
2022-10-30T20:26:46.023Z,24.67
2022-10-30T20:29:12.386Z,24.67
2022-10-30T20:31:38.727Z,24.64
2022-10-30T20:34:05.048Z,24.62
2022-10-30T20:36:31.378Z,24.59
2022-10-30T20:38:57.703Z,24.55
2022-10-30T20:41:24.041Z,24.54
2022-10-30T20:43:50.376Z,24.53
2022-10-30T20:46:16.712Z,24.50
2022-10-30T20:48:43.039Z,24.48
2022-10-30T20:51:09.362Z,24.47
2022-10-30T20:53:35.689Z,24.46
2022-10-30T20:56:02.033Z,24.45
2022-10-30T20:58:28.364Z,24.44
2022-10-30T21:00:54.742Z,24.43
2022-10-30T21:03:21.106Z,24.42
2022-10-30T21:05:47.430Z,24.41
2022-10-30T21:08:13.776Z,24.46
2022-10-30T21:10:40.154Z,24.43
2022-10-30T21:13:08.906Z,24.40
2022-10-30T21:15:36.807Z,24.39
2022-10-30T21:18:03.268Z,24.39
2022-10-30T21:20:29.640Z,24.38
2022-10-30T21:22:55.968Z,24.38
2022-10-30T21:25:22.296Z,24.37
2022-10-30T21:27:48.623Z,24.37
2022-10-30T21:30:14.958Z,24.37
2022-10-30T21:32:41.299Z,24.37
2022-10-30T21:35:07.634Z,24.36
2022-10-30T21:37:33.962Z,24.36
2022-10-30T21:40:00.307Z,24.35
2022-10-30T21:44:57.872Z,24.34
2022-10-30T21:47:24.206Z,24.33
2022-10-30T21:49:50.534Z,24.33
2022-10-30T21:52:16.870Z,24.33
2022-10-30T21:54:43.183Z,24.33
2022-10-30T21:59:36.774Z,24.32
2022-10-30T22:02:03.135Z,24.31
2022-10-30T22:04:29.475Z,24.33
2022-10-30T22:06:55.812Z,24.31
2022-10-30T22:09:22.152Z,24.31
2022-10-30T22:11:48.475Z,24.32
2022-10-30T22:14:14.799Z,24.32
2022-10-30T22:16:41.119Z,24.31
2022-10-30T22:19:07.453Z,24.31
2022-10-30T22:21:33.783Z,24.30
2022-10-30T22:24:00.124Z,24.30
2022-10-30T22:26:26.514Z,24.30
2022-10-30T22:28:52.830Z,24.30
2022-10-30T22:31:19.160Z,24.28
2022-10-30T22:33:45.494Z,24.28
2022-10-30T22:36:11.826Z,24.28
2022-10-30T22:38:38.169Z,24.28
2022-10-30T22:41:04.501Z,24.27
2022-10-30T22:43:30.838Z,24.28
2022-10-30T22:45:57.172Z,24.27
2022-10-30T22:48:23.489Z,24.26
2022-10-30T22:50:49.810Z,24.26
2022-10-30T22:53:16.149Z,24.25
2022-10-30T22:55:42.487Z,24.26
2022-10-30T22:58:08.871Z,24.25
2022-10-30T23:00:35.230Z,24.25
2022-10-30T23:03:01.957Z,24.25
2022-10-30T23:05:28.769Z,24.26
2022-10-30T23:07:55.106Z,24.32
2022-10-30T23:10:21.432Z,24.27
2022-10-30T23:12:47.767Z,24.26
2022-10-30T23:15:14.099Z,24.25
2022-10-30T23:17:40.430Z,24.23
2022-10-30T23:20:06.760Z,24.24
2022-10-30T23:22:33.090Z,24.25
2022-10-30T23:24:59.411Z,24.24
2022-10-30T23:27:25.734Z,24.25
2022-10-30T23:29:52.060Z,24.26
2022-10-30T23:32:18.386Z,24.24
2022-10-30T23:34:44.723Z,24.24
2022-10-30T23:37:11.074Z,24.25
2022-10-30T23:39:37.397Z,24.23
2022-10-30T23:42:03.717Z,24.27
2022-10-30T23:44:30.053Z,24.28
2022-10-30T23:46:56.397Z,24.30
2022-10-30T23:49:22.735Z,24.30
2022-10-30T23:51:49.051Z,24.33
2022-10-30T23:54:15.382Z,24.33
2022-10-30T23:56:41.718Z,24.35
2022-10-30T23:59:08.051Z,24.35
